sensor_id;sensor_type;location;lat;lon;timestamp;temperature;humidity
7325;DHT22;3703;48.016;7.802;2022-08-01T00:00:14;23.10;1.00
7325;DHT22;3703;48.016;7.802;2022-08-01T00:03:03;23.10;1.00
7325;DHT22;3703;48.016;7.802;2022-08-01T00:05:50;23.00;1.00
7325;DHT22;3703;48.016;7.802;2022-08-01T00:08:38;23.10;1.00
7325;DHT22;3703;48.016;7.802;2022-08-01T00:11:26;23.20;99.90
7325;DHT22;3703;48.016;7.802;2022-08-01T00:14:14;23.20;99.90
7325;DHT22;3703;48.016;7.802;2022-08-01T00:17:03;23.00;1.00
7325;DHT22;3703;48.016;7.802;2022-08-01T00:19:50;22.90;1.00
7325;DHT22;3703;48.016;7.802;2022-08-01T00:22:38;22.70;1.00
7325;DHT22;3703;48.016;7.802;2022-08-01T00:25:26;22.80;75.00
7325;DHT22;3703;48.016;7.802;2022-08-01T00:28:14;22.80;1.00
7325;DHT22;3703;48.016;7.802;2022-08-01T00:31:02;22.90;1.00
7325;DHT22;3703;48.016;7.802;2022-08-01T00:33:51;22.80;1.00
7325;DHT22;3703;48.016;7.802;2022-08-01T00:36:39;22.70;99.90
7325;DHT22;3703;48.016;7.802;2022-08-01T00:39:27;22.50;1.00
7325;DHT22;3703;48.016;7.802;2022-08-01T00:42:15;22.50;1.00
7325;DHT22;3703;48.016;7.802;2022-08-01T00:45:03;22.40;99.90
7325;DHT22;3703;48.016;7.802;2022-08-01T00:47:51;22.30;99.90
7325;DHT22;3703;48.016;7.802;2022-08-01T00:50:40;22.10;99.90
7325;DHT22;3703;48.016;7.802;2022-08-01T00:53:28;22.30;99.90
7325;DHT22;3703;48.016;7.802;2022-08-01T00:56:16;22.30;99.90
7325;DHT22;3703;48.016;7.802;2022-08-01T00:59:04;22.40;99.90
7325;DHT22;3703;48.016;7.802;2022-08-01T01:01:52;22.40;99.90
7325;DHT22;3703;48.016;7.802;2022-08-01T01:04:40;22.30;99.90
7325;DHT22;3703;48.016;7.802;2022-08-01T01:07:35;22.30;99.90
7325;DHT22;3703;48.016;7.802;2022-08-01T01:10:32;22.10;99.90
7325;DHT22;3703;48.016;7.802;2022-08-01T01:13:30;22.10;99.90
7325;DHT22;3703;48.016;7.802;2022-08-01T01:16:21;22.00;99.90
7325;DHT22;3703;48.016;7.802;2022-08-01T01:19:13;22.00;99.90
7325;DHT22;3703;48.016;7.802;2022-08-01T01:22:24;21.80;99.90
7325;DHT22;3703;48.016;7.802;2022-08-01T01:25:39;21.80;99.90
7325;DHT22;3703;48.016;7.802;2022-08-01T01:28:34;21.90;99.90
7325;DHT22;3703;48.016;7.802;2022-08-01T01:31:30;21.80;99.90
7325;DHT22;3703;48.016;7.802;2022-08-01T01:34:20;21.80;99.90
7325;DHT22;3703;48.016;7.802;2022-08-01T01:37:12;21.70;99.90
7325;DHT22;3703;48.016;7.802;2022-08-01T01:40:05;21.70;99.90
7325;DHT22;3703;48.016;7.802;2022-08-01T01:42:55;21.60;1.00
7325;DHT22;3703;48.016;7.802;2022-08-01T01:45:44;21.70;1.00
7325;DHT22;3703;48.016;7.802;2022-08-01T01:48:35;21.60;1.00
7325;DHT22;3703;48.016;7.802;2022-08-01T01:51:25;21.50;1.00
7325;DHT22;3703;48.016;7.802;2022-08-01T01:54:13;21.50;1.00
7325;DHT22;3703;48.016;7.802;2022-08-01T01:57:02;21.50;1.00
7325;DHT22;3703;48.016;7.802;2022-08-01T01:59:51;21.40;1.00
7325;DHT22;3703;48.016;7.802;2022-08-01T02:02:41;21.50;1.00
7325;DHT22;3703;48.016;7.802;2022-08-01T02:05:30;21.40;1.00
7325;DHT22;3703;48.016;7.802;2022-08-01T02:08:20;21.30;1.00
7325;DHT22;3703;48.016;7.802;2022-08-01T02:11:10;21.30;1.00
7325;DHT22;3703;48.016;7.802;2022-08-01T02:14:08;21.10;1.00
7325;DHT22;3703;48.016;7.802;2022-08-01T02:16:57;21.00;1.00
7325;DHT22;3703;48.016;7.802;2022-08-01T02:19:46;20.90;1.00
7325;DHT22;3703;48.016;7.802;2022-08-01T02:22:41;20.90;1.00
7325;DHT22;3703;48.016;7.802;2022-08-01T02:25:34;21.00;1.00
7325;DHT22;3703;48.016;7.802;2022-08-01T02:28:28;21.00;1.00
7325;DHT22;3703;48.016;7.802;2022-08-01T02:31:20;21.00;1.00
7325;DHT22;3703;48.016;7.802;2022-08-01T02:34:10;21.00;1.00
7325;DHT22;3703;48.016;7.802;2022-08-01T02:37:03;21.00;1.00
7325;DHT22;3703;48.016;7.802;2022-08-01T02:39:54;20.90;1.00
7325;DHT22;3703;48.016;7.802;2022-08-01T02:42:45;20.90;1.00
7325;DHT22;3703;48.016;7.802;2022-08-01T02:45:41;20.80;1.00
7325;DHT22;3703;48.016;7.802;2022-08-01T02:48:34;20.80;1.00
7325;DHT22;3703;48.016;7.802;2022-08-01T02:51:23;20.70;1.00
7325;DHT22;3703;48.016;7.802;2022-08-01T02:54:12;20.70;1.00
7325;DHT22;3703;48.016;7.802;2022-08-01T02:57:06;20.70;1.00
7325;DHT22;3703;48.016;7.802;2022-08-01T02:59:56;20.80;1.00
7325;DHT22;3703;48.016;7.802;2022-08-01T03:02:45;20.70;1.00
7325;DHT22;3703;48.016;7.802;2022-08-01T03:05:35;20.60;1.00
7325;DHT22;3703;48.016;7.802;2022-08-01T03:08:24;20.70;1.00
7325;DHT22;3703;48.016;7.802;2022-08-01T03:11:12;20.70;1.00
7325;DHT22;3703;48.016;7.802;2022-08-01T03:14:04;20.80;1.00
7325;DHT22;3703;48.016;7.802;2022-08-01T03:16:55;20.80;1.00
7325;DHT22;3703;48.016;7.802;2022-08-01T03:19:45;20.70;1.00
7325;DHT22;3703;48.016;7.802;2022-08-01T03:22:34;20.70;1.00
7325;DHT22;3703;48.016;7.802;2022-08-01T03:25:22;20.60;1.00
7325;DHT22;3703;48.016;7.802;2022-08-01T03:28:13;20.50;1.00
7325;DHT22;3703;48.016;7.802;2022-08-01T03:31:03;20.40;1.00
7325;DHT22;3703;48.016;7.802;2022-08-01T03:33:50;20.40;1.00
7325;DHT22;3703;48.016;7.802;2022-08-01T03:36:43;20.50;1.00
7325;DHT22;3703;48.016;7.802;2022-08-01T03:39:37;20.60;1.00
7325;DHT22;3703;48.016;7.802;2022-08-01T03:42:31;20.50;1.00
7325;DHT22;3703;48.016;7.802;2022-08-01T03:45:22;20.50;1.00
7325;DHT22;3703;48.016;7.802;2022-08-01T03:48:16;20.50;1.00
7325;DHT22;3703;48.016;7.802;2022-08-01T03:51:05;20.40;1.00
7325;DHT22;3703;48.016;7.802;2022-08-01T03:53:56;20.40;1.00
7325;DHT22;3703;48.016;7.802;2022-08-01T03:56:46;20.50;1.00
7325;DHT22;3703;48.016;7.802;2022-08-01T03:59:35;20.50;1.00
7325;DHT22;3703;48.016;7.802;2022-08-01T04:02:25;20.50;1.00
7325;DHT22;3703;48.016;7.802;2022-08-01T04:05:16;20.50;1.00
7325;DHT22;3703;48.016;7.802;2022-08-01T04:08:04;20.40;1.00
7325;DHT22;3703;48.016;7.802;2022-08-01T04:10:52;20.30;1.00
7325;DHT22;3703;48.016;7.802;2022-08-01T04:13:40;20.20;1.00
7325;DHT22;3703;48.016;7.802;2022-08-01T04:16:27;20.20;1.00
7325;DHT22;3703;48.016;7.802;2022-08-01T04:19:15;20.30;1.00
7325;DHT22;3703;48.016;7.802;2022-08-01T04:22:04;20.40;1.00
7325;DHT22;3703;48.016;7.802;2022-08-01T04:24:56;20.30;1.00
7325;DHT22;3703;48.016;7.802;2022-08-01T04:27:47;20.30;1.00
7325;DHT22;3703;48.016;7.802;2022-08-01T04:30:38;20.30;1.00
7325;DHT22;3703;48.016;7.802;2022-08-01T04:33:28;20.30;1.00
7325;DHT22;3703;48.016;7.802;2022-08-01T04:36:20;20.30;1.00
7325;DHT22;3703;48.016;7.802;2022-08-01T04:39:12;20.30;1.00
7325;DHT22;3703;48.016;7.802;2022-08-01T04:42:01;20.30;1.00
7325;DHT22;3703;48.016;7.802;2022-08-01T04:44:49;20.40;1.00
7325;DHT22;3703;48.016;7.802;2022-08-01T04:47:37;20.40;1.00
7325;DHT22;3703;48.016;7.802;2022-08-01T04:50:27;20.30;1.00
7325;DHT22;3703;48.016;7.802;2022-08-01T04:53:16;20.40;1.00
7325;DHT22;3703;48.016;7.802;2022-08-01T04:56:06;20.50;1.00
7325;DHT22;3703;48.016;7.802;2022-08-01T04:58:53;20.60;1.00
7325;DHT22;3703;48.016;7.802;2022-08-01T05:01:55;20.50;1.00
7325;DHT22;3703;48.016;7.802;2022-08-01T05:04:44;20.60;1.00
7325;DHT22;3703;48.016;7.802;2022-08-01T05:07:32;20.60;1.00
7325;DHT22;3703;48.016;7.802;2022-08-01T05:10:22;20.70;1.00
7325;DHT22;3703;48.016;7.802;2022-08-01T05:13:11;20.60;1.00
7325;DHT22;3703;48.016;7.802;2022-08-01T05:15:58;20.60;1.00
7325;DHT22;3703;48.016;7.802;2022-08-01T05:18:49;20.50;1.00
7325;DHT22;3703;48.016;7.802;2022-08-01T05:21:37;20.50;1.00
7325;DHT22;3703;48.016;7.802;2022-08-01T05:24:24;20.60;1.00
7325;DHT22;3703;48.016;7.802;2022-08-01T05:27:14;20.70;1.00
7325;DHT22;3703;48.016;7.802;2022-08-01T05:30:03;20.80;1.00
7325;DHT22;3703;48.016;7.802;2022-08-01T05:32:52;20.70;1.00
7325;DHT22;3703;48.016;7.802;2022-08-01T05:35:39;20.80;1.00
7325;DHT22;3703;48.016;7.802;2022-08-01T05:38:27;20.80;1.00
7325;DHT22;3703;48.016;7.802;2022-08-01T05:41:15;20.90;1.00
7325;DHT22;3703;48.016;7.802;2022-08-01T05:44:03;21.00;1.00
7325;DHT22;3703;48.016;7.802;2022-08-01T05:46:52;21.10;1.00
7325;DHT22;3703;48.016;7.802;2022-08-01T05:49:40;21.20;1.00
7325;DHT22;3703;48.016;7.802;2022-08-01T05:52:27;21.30;1.00
7325;DHT22;3703;48.016;7.802;2022-08-01T05:55:16;21.40;1.00
7325;DHT22;3703;48.016;7.802;2022-08-01T05:58:04;21.20;1.00
7325;DHT22;3703;48.016;7.802;2022-08-01T06:00:52;21.20;1.00
7325;DHT22;3703;48.016;7.802;2022-08-01T06:03:40;21.30;1.00
7325;DHT22;3703;48.016;7.802;2022-08-01T06:06:28;21.50;1.00
7325;DHT22;3703;48.016;7.802;2022-08-01T06:09:16;21.60;99.90
7325;DHT22;3703;48.016;7.802;2022-08-01T06:12:04;21.50;99.90
7325;DHT22;3703;48.016;7.802;2022-08-01T06:14:52;21.40;99.90
7325;DHT22;3703;48.016;7.802;2022-08-01T06:17:40;21.40;99.90
7325;DHT22;3703;48.016;7.802;2022-08-01T06:20:29;21.30;1.00
7325;DHT22;3703;48.016;7.802;2022-08-01T06:23:16;21.50;99.90
7325;DHT22;3703;48.016;7.802;2022-08-01T06:26:04;21.60;99.90
7325;DHT22;3703;48.016;7.802;2022-08-01T06:28:52;22.00;99.90
7325;DHT22;3703;48.016;7.802;2022-08-01T06:31:39;21.70;99.90
7325;DHT22;3703;48.016;7.802;2022-08-01T06:34:27;21.60;99.90
7325;DHT22;3703;48.016;7.802;2022-08-01T06:37:16;21.40;99.90
7325;DHT22;3703;48.016;7.802;2022-08-01T06:40:06;21.40;99.90
7325;DHT22;3703;48.016;7.802;2022-08-01T06:42:55;21.50;99.90
7325;DHT22;3703;48.016;7.802;2022-08-01T06:45:43;21.60;99.90
7325;DHT22;3703;48.016;7.802;2022-08-01T06:48:30;21.70;99.90
7325;DHT22;3703;48.016;7.802;2022-08-01T06:51:18;21.80;99.90
7325;DHT22;3703;48.016;7.802;2022-08-01T06:54:08;22.10;99.90
7325;DHT22;3703;48.016;7.802;2022-08-01T06:56:55;22.30;99.90
7325;DHT22;3703;48.016;7.802;2022-08-01T06:59:43;22.30;99.90
7325;DHT22;3703;48.016;7.802;2022-08-01T07:02:31;22.40;34.80
7325;DHT22;3703;48.016;7.802;2022-08-01T07:05:19;22.50;99.90
7325;DHT22;3703;48.016;7.802;2022-08-01T07:08:07;22.70;58.40
7325;DHT22;3703;48.016;7.802;2022-08-01T07:10:56;23.10;1.00
7325;DHT22;3703;48.016;7.802;2022-08-01T07:13:45;23.30;99.90
7325;DHT22;3703;48.016;7.802;2022-08-01T07:16:33;23.20;99.90
7325;DHT22;3703;48.016;7.802;2022-08-01T07:19:20;23.40;99.90
7325;DHT22;3703;48.016;7.802;2022-08-01T07:22:08;23.50;1.00
7325;DHT22;3703;48.016;7.802;2022-08-01T07:24:56;23.70;1.00
7325;DHT22;3703;48.016;7.802;2022-08-01T07:27:45;23.90;99.90
7325;DHT22;3703;48.016;7.802;2022-08-01T07:30:33;24.00;1.00
7325;DHT22;3703;48.016;7.802;2022-08-01T07:33:20;24.20;99.90
7325;DHT22;3703;48.016;7.802;2022-08-01T07:36:08;24.10;99.90
7325;DHT22;3703;48.016;7.802;2022-08-01T07:38:56;24.30;1.00
7325;DHT22;3703;48.016;7.802;2022-08-01T07:41:44;24.40;1.00
7325;DHT22;3703;48.016;7.802;2022-08-01T07:44:33;24.50;99.90
7325;DHT22;3703;48.016;7.802;2022-08-01T07:47:23;24.40;1.00
7325;DHT22;3703;48.016;7.802;2022-08-01T07:50:11;24.50;1.00
7325;DHT22;3703;48.016;7.802;2022-08-01T07:53:00;24.70;99.90
7325;DHT22;3703;48.016;7.802;2022-08-01T07:55:49;24.90;99.90
7325;DHT22;3703;48.016;7.802;2022-08-01T07:58:37;25.10;1.00
7325;DHT22;3703;48.016;7.802;2022-08-01T08:01:26;25.20;1.00
7325;DHT22;3703;48.016;7.802;2022-08-01T08:04:14;25.40;92.10
7325;DHT22;3703;48.016;7.802;2022-08-01T08:07:02;25.50;1.00
7325;DHT22;3703;48.016;7.802;2022-08-01T08:09:50;25.60;99.90
7325;DHT22;3703;48.016;7.802;2022-08-01T08:12:37;25.50;99.90
7325;DHT22;3703;48.016;7.802;2022-08-01T08:15:25;25.50;99.90
7325;DHT22;3703;48.016;7.802;2022-08-01T08:18:15;25.60;99.90
7325;DHT22;3703;48.016;7.802;2022-08-01T08:21:02;25.80;1.00
7325;DHT22;3703;48.016;7.802;2022-08-01T08:23:50;25.80;1.00
7325;DHT22;3703;48.016;7.802;2022-08-01T08:26:58;26.00;1.00
7325;DHT22;3703;48.016;7.802;2022-08-01T08:29:46;26.10;1.00
7325;DHT22;3703;48.016;7.802;2022-08-01T08:32:34;26.30;99.90
7325;DHT22;3703;48.016;7.802;2022-08-01T08:35:23;26.40;99.90
7325;DHT22;3703;48.016;7.802;2022-08-01T08:38:11;26.40;99.90
7325;DHT22;3703;48.016;7.802;2022-08-01T08:41:00;26.40;99.90
7325;DHT22;3703;48.016;7.802;2022-08-01T08:43:48;26.20;1.00
7325;DHT22;3703;48.016;7.802;2022-08-01T08:46:41;25.90;99.90
7325;DHT22;3703;48.016;7.802;2022-08-01T08:49:31;26.10;99.90
7325;DHT22;3703;48.016;7.802;2022-08-01T08:52:22;26.40;1.00
7325;DHT22;3703;48.016;7.802;2022-08-01T08:55:11;26.50;1.00
7325;DHT22;3703;48.016;7.802;2022-08-01T08:58:01;26.40;1.00
7325;DHT22;3703;48.016;7.802;2022-08-01T09:00:52;26.60;1.00
7325;DHT22;3703;48.016;7.802;2022-08-01T09:03:41;26.90;1.00
7325;DHT22;3703;48.016;7.802;2022-08-01T09:06:29;26.70;99.90
7325;DHT22;3703;48.016;7.802;2022-08-01T09:09:18;27.00;1.00
7325;DHT22;3703;48.016;7.802;2022-08-01T09:12:06;27.10;89.70
7325;DHT22;3703;48.016;7.802;2022-08-01T09:14:54;27.00;1.00
7325;DHT22;3703;48.016;7.802;2022-08-01T09:17:42;26.70;1.00
7325;DHT22;3703;48.016;7.802;2022-08-01T09:20:30;26.70;1.00
7325;DHT22;3703;48.016;7.802;2022-08-01T09:23:31;26.90;1.00
7325;DHT22;3703;48.016;7.802;2022-08-01T09:26:22;26.90;99.90
7325;DHT22;3703;48.016;7.802;2022-08-01T09:29:20;27.00;99.90
7325;DHT22;3703;48.016;7.802;2022-08-01T09:32:09;27.20;99.90
7325;DHT22;3703;48.016;7.802;2022-08-01T09:34:56;27.50;99.90
7325;DHT22;3703;48.016;7.802;2022-08-01T09:37:44;27.80;99.90
7325;DHT22;3703;48.016;7.802;2022-08-01T09:40:47;27.60;1.00
7325;DHT22;3703;48.016;7.802;2022-08-01T09:43:37;27.70;29.00
7325;DHT22;3703;48.016;7.802;2022-08-01T09:46:25;27.20;1.00
7325;DHT22;3703;48.016;7.802;2022-08-01T09:49:13;27.40;81.20
7325;DHT22;3703;48.016;7.802;2022-08-01T09:52:11;27.60;1.00
7325;DHT22;3703;48.016;7.802;2022-08-01T09:55:02;28.00;52.50
7325;DHT22;3703;48.016;7.802;2022-08-01T09:57:54;28.40;1.00
7325;DHT22;3703;48.016;7.802;2022-08-01T10:00:57;28.50;1.00
7325;DHT22;3703;48.016;7.802;2022-08-01T10:03:46;28.80;1.00
7325;DHT22;3703;48.016;7.802;2022-08-01T10:06:33;29.00;1.00
7325;DHT22;3703;48.016;7.802;2022-08-01T10:09:28;29.10;99.90
7325;DHT22;3703;48.016;7.802;2022-08-01T10:12:18;28.60;99.90
7325;DHT22;3703;48.016;7.802;2022-08-01T10:15:08;28.60;99.90
7325;DHT22;3703;48.016;7.802;2022-08-01T10:18:01;29.00;99.90
7325;DHT22;3703;48.016;7.802;2022-08-01T10:20:52;29.10;99.90
7325;DHT22;3703;48.016;7.802;2022-08-01T10:23:41;29.30;99.90
7325;DHT22;3703;48.016;7.802;2022-08-01T10:26:33;29.70;99.90
7325;DHT22;3703;48.016;7.802;2022-08-01T10:29:21;30.00;99.90
7325;DHT22;3703;48.016;7.802;2022-08-01T10:32:10;29.50;99.90
7325;DHT22;3703;48.016;7.802;2022-08-01T10:35:00;29.30;99.90
7325;DHT22;3703;48.016;7.802;2022-08-01T10:37:49;29.50;99.90
7325;DHT22;3703;48.016;7.802;2022-08-01T10:40:42;29.80;99.90
7325;DHT22;3703;48.016;7.802;2022-08-01T10:43:30;29.90;99.90
7325;DHT22;3703;48.016;7.802;2022-08-01T10:46:18;30.20;99.90
7325;DHT22;3703;48.016;7.802;2022-08-01T10:49:10;30.30;95.50
7325;DHT22;3703;48.016;7.802;2022-08-01T10:52:00;30.20;3.00
7325;DHT22;3703;48.016;7.802;2022-08-01T10:54:48;29.60;1.00
7325;DHT22;3703;48.016;7.802;2022-08-01T10:57:43;29.20;1.00
7325;DHT22;3703;48.016;7.802;2022-08-01T11:00:31;29.10;1.00
7325;DHT22;3703;48.016;7.802;2022-08-01T11:03:32;29.50;1.00
7325;DHT22;3703;48.016;7.802;2022-08-01T11:06:25;30.10;1.00
7325;DHT22;3703;48.016;7.802;2022-08-01T11:09:26;30.60;1.00
7325;DHT22;3703;48.016;7.802;2022-08-01T11:12:16;30.90;1.00
7325;DHT22;3703;48.016;7.802;2022-08-01T11:15:18;31.20;1.00
7325;DHT22;3703;48.016;7.802;2022-08-01T11:18:30;31.50;1.00
7325;DHT22;3703;48.016;7.802;2022-08-01T11:21:18;31.70;1.00
7325;DHT22;3703;48.016;7.802;2022-08-01T11:24:09;31.20;1.00
7325;DHT22;3703;48.016;7.802;2022-08-01T11:27:16;31.20;1.00
7325;DHT22;3703;48.016;7.802;2022-08-01T11:30:24;31.40;1.00
7325;DHT22;3703;48.016;7.802;2022-08-01T11:33:13;31.60;1.00
7325;DHT22;3703;48.016;7.802;2022-08-01T11:36:18;31.50;1.00
7325;DHT22;3703;48.016;7.802;2022-08-01T11:39:15;31.80;1.00
7325;DHT22;3703;48.016;7.802;2022-08-01T11:42:19;31.80;1.00
7325;DHT22;3703;48.016;7.802;2022-08-01T11:45:07;32.00;1.00
7325;DHT22;3703;48.016;7.802;2022-08-01T11:47:57;32.30;1.00
7325;DHT22;3703;48.016;7.802;2022-08-01T11:50:45;32.40;1.00
7325;DHT22;3703;48.016;7.802;2022-08-01T11:53:33;32.60;1.00
7325;DHT22;3703;48.016;7.802;2022-08-01T11:56:24;32.70;99.90
7325;DHT22;3703;48.016;7.802;2022-08-01T11:59:13;32.30;99.90
7325;DHT22;3703;48.016;7.802;2022-08-01T12:02:01;32.10;99.90
7325;DHT22;3703;48.016;7.802;2022-08-01T12:04:53;32.10;99.90
7325;DHT22;3703;48.016;7.802;2022-08-01T12:07:43;32.10;99.90
7325;DHT22;3703;48.016;7.802;2022-08-01T12:10:34;31.60;99.90
7325;DHT22;3703;48.016;7.802;2022-08-01T12:13:23;30.90;99.90
7325;DHT22;3703;48.016;7.802;2022-08-01T12:16:12;30.90;99.90
7325;DHT22;3703;48.016;7.802;2022-08-01T12:19:00;31.10;1.00
7325;DHT22;3703;48.016;7.802;2022-08-01T12:22:07;31.50;1.00
7325;DHT22;3703;48.016;7.802;2022-08-01T12:25:05;31.90;1.00
7325;DHT22;3703;48.016;7.802;2022-08-01T12:27:54;32.10;1.00
7325;DHT22;3703;48.016;7.802;2022-08-01T12:30:42;32.30;1.00
7325;DHT22;3703;48.016;7.802;2022-08-01T12:33:31;32.00;99.90
7325;DHT22;3703;48.016;7.802;2022-08-01T12:36:27;31.30;99.90
7325;DHT22;3703;48.016;7.802;2022-08-01T12:39:15;31.50;99.90
7325;DHT22;3703;48.016;7.802;2022-08-01T12:42:06;31.90;99.90
7325;DHT22;3703;48.016;7.802;2022-08-01T12:44:56;31.90;99.90
7325;DHT22;3703;48.016;7.802;2022-08-01T12:47:44;31.90;99.90
7325;DHT22;3703;48.016;7.802;2022-08-01T12:50:36;32.30;99.90
7325;DHT22;3703;48.016;7.802;2022-08-01T12:53:24;32.90;99.90
7325;DHT22;3703;48.016;7.802;2022-08-01T12:56:12;33.40;99.90
7325;DHT22;3703;48.016;7.802;2022-08-01T12:59:00;33.40;99.90
7325;DHT22;3703;48.016;7.802;2022-08-01T13:01:49;33.20;99.90
7325;DHT22;3703;48.016;7.802;2022-08-01T13:04:49;33.60;99.90
7325;DHT22;3703;48.016;7.802;2022-08-01T13:07:44;33.80;99.90
7325;DHT22;3703;48.016;7.802;2022-08-01T13:10:33;33.80;99.90
7325;DHT22;3703;48.016;7.802;2022-08-01T13:13:21;33.90;99.90
7325;DHT22;3703;48.016;7.802;2022-08-01T13:16:09;34.00;99.90
7325;DHT22;3703;48.016;7.802;2022-08-01T13:18:57;33.60;99.90
7325;DHT22;3703;48.016;7.802;2022-08-01T13:21:56;33.80;99.90
7325;DHT22;3703;48.016;7.802;2022-08-01T13:24:46;33.70;99.90
7325;DHT22;3703;48.016;7.802;2022-08-01T13:27:33;33.40;99.90
7325;DHT22;3703;48.016;7.802;2022-08-01T13:30:24;33.10;99.90
7325;DHT22;3703;48.016;7.802;2022-08-01T13:33:11;32.70;99.90
7325;DHT22;3703;48.016;7.802;2022-08-01T13:35:59;32.50;99.90
7325;DHT22;3703;48.016;7.802;2022-08-01T13:38:47;32.60;99.90
7325;DHT22;3703;48.016;7.802;2022-08-01T13:41:53;32.90;99.90
7325;DHT22;3703;48.016;7.802;2022-08-01T13:44:41;33.60;99.90
7325;DHT22;3703;48.016;7.802;2022-08-01T13:47:31;34.10;99.90
7325;DHT22;3703;48.016;7.802;2022-08-01T13:50:19;34.10;99.90
7325;DHT22;3703;48.016;7.802;2022-08-01T13:53:07;33.60;99.90
7325;DHT22;3703;48.016;7.802;2022-08-01T13:55:55;33.30;99.90
7325;DHT22;3703;48.016;7.802;2022-08-01T13:58:45;33.40;99.90
7325;DHT22;3703;48.016;7.802;2022-08-01T14:01:33;33.50;99.90
7325;DHT22;3703;48.016;7.802;2022-08-01T14:04:21;33.40;99.90
7325;DHT22;3703;48.016;7.802;2022-08-01T14:07:09;33.20;99.90
7325;DHT22;3703;48.016;7.802;2022-08-01T14:09:56;33.10;99.90
7325;DHT22;3703;48.016;7.802;2022-08-01T14:12:44;33.00;99.90
7325;DHT22;3703;48.016;7.802;2022-08-01T14:15:33;32.70;99.90
7325;DHT22;3703;48.016;7.802;2022-08-01T14:18:21;32.40;99.90
7325;DHT22;3703;48.016;7.802;2022-08-01T14:21:08;32.30;99.90
7325;DHT22;3703;48.016;7.802;2022-08-01T14:23:56;32.10;99.90
7325;DHT22;3703;48.016;7.802;2022-08-01T14:26:44;31.90;99.90
7325;DHT22;3703;48.016;7.802;2022-08-01T14:29:31;31.70;99.90
7325;DHT22;3703;48.016;7.802;2022-08-01T14:32:20;31.60;99.90
7325;DHT22;3703;48.016;7.802;2022-08-01T14:35:08;31.40;99.90
7325;DHT22;3703;48.016;7.802;2022-08-01T14:37:56;31.30;99.90
7325;DHT22;3703;48.016;7.802;2022-08-01T14:40:44;31.20;99.90
7325;DHT22;3703;48.016;7.802;2022-08-01T14:43:32;31.10;99.90
7325;DHT22;3703;48.016;7.802;2022-08-01T14:46:20;31.00;99.90
7325;DHT22;3703;48.016;7.802;2022-08-01T14:49:09;30.90;99.90
7325;DHT22;3703;48.016;7.802;2022-08-01T14:51:57;30.70;99.90
7325;DHT22;3703;48.016;7.802;2022-08-01T14:54:45;30.70;99.90
7325;DHT22;3703;48.016;7.802;2022-08-01T14:57:32;30.60;99.90
7325;DHT22;3703;48.016;7.802;2022-08-01T15:00:21;30.60;99.90
7325;DHT22;3703;48.016;7.802;2022-08-01T15:03:08;30.70;99.90
7325;DHT22;3703;48.016;7.802;2022-08-01T15:05:57;30.80;1.00
7325;DHT22;3703;48.016;7.802;2022-08-01T15:08:45;31.00;1.00
7325;DHT22;3703;48.016;7.802;2022-08-01T15:11:33;31.20;1.00
7325;DHT22;3703;48.016;7.802;2022-08-01T15:14:20;31.20;1.00
7325;DHT22;3703;48.016;7.802;2022-08-01T15:17:26;31.10;99.90
7325;DHT22;3703;48.016;7.802;2022-08-01T15:20:16;31.00;1.00
7325;DHT22;3703;48.016;7.802;2022-08-01T15:23:05;31.00;1.00
7325;DHT22;3703;48.016;7.802;2022-08-01T15:25:56;30.90;1.00
7325;DHT22;3703;48.016;7.802;2022-08-01T15:28:44;30.90;1.00
7325;DHT22;3703;48.016;7.802;2022-08-01T15:31:32;30.80;1.00
7325;DHT22;3703;48.016;7.802;2022-08-01T15:34:19;30.80;1.00
7325;DHT22;3703;48.016;7.802;2022-08-01T15:37:08;30.80;1.00
7325;DHT22;3703;48.016;7.802;2022-08-01T15:39:57;30.90;1.00
7325;DHT22;3703;48.016;7.802;2022-08-01T15:42:45;31.00;1.00
7325;DHT22;3703;48.016;7.802;2022-08-01T15:45:33;31.10;1.00
7325;DHT22;3703;48.016;7.802;2022-08-01T15:48:21;31.10;1.00
7325;DHT22;3703;48.016;7.802;2022-08-01T15:51:09;31.10;1.00
7325;DHT22;3703;48.016;7.802;2022-08-01T15:53:57;31.20;1.00
7325;DHT22;3703;48.016;7.802;2022-08-01T15:56:49;31.30;1.00
7325;DHT22;3703;48.016;7.802;2022-08-01T15:59:38;31.20;1.00
7325;DHT22;3703;48.016;7.802;2022-08-01T16:02:26;31.10;1.00
7325;DHT22;3703;48.016;7.802;2022-08-01T16:05:14;31.10;1.00
7325;DHT22;3703;48.016;7.802;2022-08-01T16:08:02;31.00;1.00
7325;DHT22;3703;48.016;7.802;2022-08-01T16:10:50;30.90;1.00
7325;DHT22;3703;48.016;7.802;2022-08-01T16:13:40;30.80;1.00
7325;DHT22;3703;48.016;7.802;2022-08-01T16:16:27;30.60;1.00
7325;DHT22;3703;48.016;7.802;2022-08-01T16:19:15;30.40;1.00
7325;DHT22;3703;48.016;7.802;2022-08-01T16:22:03;30.30;1.00
7325;DHT22;3703;48.016;7.802;2022-08-01T16:24:51;30.20;1.00
7325;DHT22;3703;48.016;7.802;2022-08-01T16:27:39;30.00;1.00
7325;DHT22;3703;48.016;7.802;2022-08-01T16:30:28;29.90;1.00
7325;DHT22;3703;48.016;7.802;2022-08-01T16:33:16;29.80;1.00
7325;DHT22;3703;48.016;7.802;2022-08-01T16:36:04;29.60;1.00
7325;DHT22;3703;48.016;7.802;2022-08-01T16:38:52;29.40;1.00
7325;DHT22;3703;48.016;7.802;2022-08-01T16:41:39;29.40;1.00
7325;DHT22;3703;48.016;7.802;2022-08-01T16:44:27;29.40;1.00
7325;DHT22;3703;48.016;7.802;2022-08-01T16:47:17;29.30;1.00
7325;DHT22;3703;48.016;7.802;2022-08-01T16:50:05;29.20;1.00
7325;DHT22;3703;48.016;7.802;2022-08-01T16:52:54;29.10;1.00
7325;DHT22;3703;48.016;7.802;2022-08-01T16:55:42;29.00;1.00
7325;DHT22;3703;48.016;7.802;2022-08-01T16:58:31;28.90;1.00
7325;DHT22;3703;48.016;7.802;2022-08-01T17:01:19;28.80;13.70
7325;DHT22;3703;48.016;7.802;2022-08-01T17:04:10;28.70;36.80
7325;DHT22;3703;48.016;7.802;2022-08-01T17:06:58;28.50;79.00
7325;DHT22;3703;48.016;7.802;2022-08-01T17:09:46;28.30;99.90
7325;DHT22;3703;48.016;7.802;2022-08-01T17:12:33;28.20;99.90
7325;DHT22;3703;48.016;7.802;2022-08-01T17:15:21;28.10;99.90
7325;DHT22;3703;48.016;7.802;2022-08-01T17:18:09;27.80;99.90
7325;DHT22;3703;48.016;7.802;2022-08-01T17:20:58;27.70;1.00
7325;DHT22;3703;48.016;7.802;2022-08-01T17:23:45;27.60;1.00
7325;DHT22;3703;48.016;7.802;2022-08-01T17:26:33;27.50;51.50
7325;DHT22;3703;48.016;7.802;2022-08-01T17:29:21;27.40;1.00
7325;DHT22;3703;48.016;7.802;2022-08-01T17:32:09;27.10;99.90
7325;DHT22;3703;48.016;7.802;2022-08-01T17:34:58;26.80;1.00
7325;DHT22;3703;48.016;7.802;2022-08-01T17:37:48;26.50;99.90
7325;DHT22;3703;48.016;7.802;2022-08-01T17:40:35;26.50;1.00
7325;DHT22;3703;48.016;7.802;2022-08-01T17:43:23;26.70;99.90
7325;DHT22;3703;48.016;7.802;2022-08-01T17:46:11;26.90;1.00
7325;DHT22;3703;48.016;7.802;2022-08-01T17:48:58;27.00;99.90
7325;DHT22;3703;48.016;7.802;2022-08-01T17:51:46;27.00;99.90
7325;DHT22;3703;48.016;7.802;2022-08-01T17:54:35;27.00;99.90
7325;DHT22;3703;48.016;7.802;2022-08-01T17:57:23;27.00;99.90
7325;DHT22;3703;48.016;7.802;2022-08-01T18:00:12;26.40;99.90
7325;DHT22;3703;48.016;7.802;2022-08-01T18:03:00;24.40;99.90
7325;DHT22;3703;48.016;7.802;2022-08-01T18:05:48;23.80;1.00
7325;DHT22;3703;48.016;7.802;2022-08-01T18:08:36;23.60;1.00
7325;DHT22;3703;48.016;7.802;2022-08-01T18:11:26;23.40;12.00
7325;DHT22;3703;48.016;7.802;2022-08-01T18:14:14;23.60;1.00
7325;DHT22;3703;48.016;7.802;2022-08-01T18:17:02;23.60;1.00
7325;DHT22;3703;48.016;7.802;2022-08-01T18:19:49;23.10;1.00
7325;DHT22;3703;48.016;7.802;2022-08-01T18:22:37;22.80;1.00
7325;DHT22;3703;48.016;7.802;2022-08-01T18:25:26;22.90;7.00
7325;DHT22;3703;48.016;7.802;2022-08-01T18:28:16;22.60;1.00
7325;DHT22;3703;48.016;7.802;2022-08-01T18:31:04;22.40;18.30
7325;DHT22;3703;48.016;7.802;2022-08-01T18:33:52;22.30;4.30
7325;DHT22;3703;48.016;7.802;2022-08-01T18:36:40;22.00;14.40